Rodarte, New Mexico
Current Conditions -  °F | °C
As of 8:35 PM on Friday 19 Dec 2014 (Local Time) from KSKX Reporting Station
Clear Clear  
Wind Chill: 11°   Ceiling: Unl
Heat Index: 19°   Visibility: 10mi
Dew Point: 14°   Wind: 6mph
Humidity: 80%   Direction: 10°N
Pressure: 30.18"   Gusts: NA
Location:  36.1892°N, 105.688°W
Report Text: KSKX 200335Z AUTO 01005KT 10SM CLR M07/M10 A3018 RMK AO1
Loading
Personal Weather Stations






























Interactive Weather Map New forecast layout! Learn more

10-Day Weather Forecast

Advertisements
Track Severe Weather on mobile